sensor_id;sensor_type;location;lat;lon;timestamp;pressure;altitude;pressure_sealevel;temperature;humidity
37368;BME280;23240;43.210;27.910;2023-04-02T00:08:54;99802.00;;;10.54;100.00
37368;BME280;23240;43.210;27.910;2023-04-02T00:11:33;99800.22;;;10.45;100.00
37368;BME280;23240;43.210;27.910;2023-04-02T00:14:00;99805.41;;;10.47;100.00
37368;BME280;23240;43.210;27.910;2023-04-02T00:16:26;99789.78;;;10.42;100.00
37368;BME280;23240;43.210;27.910;2023-04-02T00:18:53;99797.41;;;10.37;100.00
37368;BME280;23240;43.210;27.910;2023-04-02T00:23:52;99805.19;;;10.21;100.00
37368;BME280;23240;43.210;27.910;2023-04-02T00:28:47;99806.19;;;10.10;100.00
37368;BME280;23240;43.210;27.910;2023-04-02T00:31:12;99813.81;;;10.05;100.00
37368;BME280;23240;43.210;27.910;2023-04-02T00:33:38;99814.81;;;10.04;100.00
37368;BME280;23240;43.210;27.910;2023-04-02T00:36:07;99814.25;;;10.00;100.00
37368;BME280;23240;43.210;27.910;2023-04-02T00:38:32;99818.91;;;9.98;100.00
37368;BME280;23240;43.210;27.910;2023-04-02T00:41:01;99824.41;;;9.97;100.00
37368;BME280;23240;43.210;27.910;2023-04-02T00:43:27;99818.50;;;9.93;100.00
37368;BME280;23240;43.210;27.910;2023-04-02T00:45:55;99820.03;;;9.96;100.00
37368;BME280;23240;43.210;27.910;2023-04-02T00:50:49;99823.44;;;9.88;100.00
37368;BME280;23240;43.210;27.910;2023-04-02T00:53:24;99812.47;;;9.91;100.00
37368;BME280;23240;43.210;27.910;2023-04-02T00:55:50;99816.09;;;9.90;100.00
37368;BME280;23240;43.210;27.910;2023-04-02T00:58:29;99817.25;;;9.88;100.00
37368;BME280;23240;43.210;27.910;2023-04-02T01:00:55;99813.84;;;9.86;100.00
37368;BME280;23240;43.210;27.910;2023-04-02T01:05:49;99820.19;;;9.85;100.00
37368;BME280;23240;43.210;27.910;2023-04-02T01:31:10;99817.28;;;9.59;100.00
37368;BME280;23240;43.210;27.910;2023-04-02T01:33:36;99819.78;;;9.60;100.00
37368;BME280;23240;43.210;27.910;2023-04-02T01:38:32;99820.06;;;9.57;100.00
37368;BME280;23240;43.210;27.910;2023-04-02T01:41:11;99816.44;;;9.58;100.00
37368;BME280;23240;43.210;27.910;2023-04-02T01:43:41;99814.44;;;9.60;100.00
37368;BME280;23240;43.210;27.910;2023-04-02T01:46:27;99828.22;;;9.65;100.00
37368;BME280;23240;43.210;27.910;2023-04-02T01:48:53;99822.03;;;9.65;100.00
37368;BME280;23240;43.210;27.910;2023-04-02T01:51:53;99822.03;;;9.65;100.00
37368;BME280;23240;43.210;27.910;2023-04-02T01:54:12;99815.84;;;9.64;100.00
37368;BME280;23240;43.210;27.910;2023-04-02T01:56:37;99813.34;;;9.63;100.00
37368;BME280;23240;43.210;27.910;2023-04-02T01:59:06;99809.94;;;9.61;100.00
37368;BME280;23240;43.210;27.910;2023-04-02T02:01:33;99806.44;;;9.60;100.00
37368;BME280;23240;43.210;27.910;2023-04-02T02:04:00;99802.91;;;9.60;100.00
37368;BME280;23240;43.210;27.910;2023-04-02T02:06:26;99808.41;;;9.58;100.00
37368;BME280;23240;43.210;27.910;2023-04-02T02:08:52;99805.75;;;9.58;100.00
37368;BME280;23240;43.210;27.910;2023-04-02T02:11:20;99802.34;;;9.56;100.00
37368;BME280;23240;43.210;27.910;2023-04-02T02:13:52;99809.94;;;9.61;100.00
37368;BME280;23240;43.210;27.910;2023-04-02T02:16:19;99803.47;;;9.63;100.00
37368;BME280;23240;43.210;27.910;2023-04-02T02:18:46;99810.94;;;9.69;100.00
37368;BME280;23240;43.210;27.910;2023-04-02T02:21:15;99803.75;;;9.70;100.00
37368;BME280;23240;43.210;27.910;2023-04-02T02:23:45;99804.88;;;9.77;100.00
37368;BME280;23240;43.210;27.910;2023-04-02T02:26:11;99804.56;;;9.80;100.00
37368;BME280;23240;43.210;27.910;2023-04-02T02:28:38;99803.47;;;9.83;100.00
37368;BME280;23240;43.210;27.910;2023-04-02T02:31:17;99801.63;;;9.83;100.00
37368;BME280;23240;43.210;27.910;2023-04-02T02:33:50;99803.16;;;9.86;100.00
37368;BME280;23240;43.210;27.910;2023-04-02T02:39:33;99819.50;;;9.83;100.00
37368;BME280;23240;43.210;27.910;2023-04-02T02:41:59;99812.59;;;9.90;100.00
37368;BME280;23240;43.210;27.910;2023-04-02T02:44:27;99825.38;;;9.96;100.00
37368;BME280;23240;43.210;27.910;2023-04-02T02:47:03;99827.94;;;9.97;100.00
37368;BME280;23240;43.210;27.910;2023-04-02T02:49:34;99831.28;;;9.99;100.00
37368;BME280;23240;43.210;27.910;2023-04-02T02:54:26;99822.84;;;10.04;100.00
37368;BME280;23240;43.210;27.910;2023-04-02T02:56:53;99833.69;;;10.02;100.00
37368;BME280;23240;43.210;27.910;2023-04-02T02:59:20;99829.34;;;10.01;100.00
37368;BME280;23240;43.210;27.910;2023-04-02T03:01:46;99833.53;;;10.04;100.00
37368;BME280;23240;43.210;27.910;2023-04-02T03:04:12;99840.56;;;10.05;100.00
37368;BME280;23240;43.210;27.910;2023-04-02T03:06:38;99843.13;;;9.97;100.00
37368;BME280;23240;43.210;27.910;2023-04-02T03:11:55;99844.25;;;10.04;100.00
37368;BME280;23240;43.210;27.910;2023-04-02T03:14:34;99852.69;;;10.09;100.00
37368;BME280;23240;43.210;27.910;2023-04-02T03:17:07;99851.53;;;10.21;100.00
37368;BME280;23240;43.210;27.910;2023-04-02T03:19:37;99861.84;;;10.26;100.00
37368;BME280;23240;43.210;27.910;2023-04-02T03:24:34;99868.72;;;10.28;100.00
37368;BME280;23240;43.210;27.910;2023-04-02T03:27:02;99865.63;;;10.33;100.00
37368;BME280;23240;43.210;27.910;2023-04-02T03:29:32;99873.22;;;10.38;100.00
37368;BME280;23240;43.210;27.910;2023-04-02T03:31:59;99877.97;;;10.44;100.00
37368;BME280;23240;43.210;27.910;2023-04-02T03:39:41;99864.53;;;10.26;100.00
37368;BME280;23240;43.210;27.910;2023-04-02T03:42:11;99858.00;;;10.19;100.00
37368;BME280;23240;43.210;27.910;2023-04-02T03:44:43;99852.97;;;10.16;100.00
37368;BME280;23240;43.210;27.910;2023-04-02T03:47:11;99845.66;;;10.08;100.00
37368;BME280;23240;43.210;27.910;2023-04-02T03:49:40;99844.53;;;10.11;100.00
37368;BME280;23240;43.210;27.910;2023-04-02T03:52:09;99847.47;;;10.08;100.00
37368;BME280;23240;43.210;27.910;2023-04-02T03:54:36;99844.81;;;10.08;100.00
37368;BME280;23240;43.210;27.910;2023-04-02T03:57:02;99852.56;;;10.11;100.00
37368;BME280;23240;43.210;27.910;2023-04-02T04:02:14;99861.69;;;10.08;100.00
37368;BME280;23240;43.210;27.910;2023-04-02T04:04:43;99870.28;;;10.12;100.00
37368;BME280;23240;43.210;27.910;2023-04-02T04:07:11;99870.13;;;10.13;100.00
37368;BME280;23240;43.210;27.910;2023-04-02T04:09:39;99872.53;;;10.16;100.00
37368;BME280;23240;43.210;27.910;2023-04-02T04:14:32;99887.00;;;10.23;100.00
37368;BME280;23240;43.210;27.910;2023-04-02T04:19:29;99887.59;;;10.37;100.00
37368;BME280;23240;43.210;27.910;2023-04-02T04:22:17;99892.91;;;10.46;100.00
37368;BME280;23240;43.210;27.910;2023-04-02T04:24:44;99895.13;;;10.61;100.00
37368;BME280;23240;43.210;27.910;2023-04-02T04:27:14;99902.72;;;10.65;100.00
37368;BME280;23240;43.210;27.910;2023-04-02T04:29:47;99906.38;;;10.74;100.00
37368;BME280;23240;43.210;27.910;2023-04-02T04:34:51;99914.19;;;10.95;100.00
37368;BME280;23240;43.210;27.910;2023-04-02T04:37:24;99907.94;;;11.04;100.00
37368;BME280;23240;43.210;27.910;2023-04-02T04:39:54;99906.09;;;11.04;100.00
37368;BME280;23240;43.210;27.910;2023-04-02T04:42:22;99914.97;;;11.05;100.00
37368;BME280;23240;43.210;27.910;2023-04-02T04:47:18;99915.53;;;11.09;100.00
37368;BME280;23240;43.210;27.910;2023-04-02T04:49:58;99913.28;;;11.04;100.00
37368;BME280;23240;43.210;27.910;2023-04-02T04:52:28;99911.91;;;11.00;100.00
37368;BME280;23240;43.210;27.910;2023-04-02T04:54:56;99916.13;;;11.02;100.00
37368;BME280;23240;43.210;27.910;2023-04-02T04:57:29;99919.22;;;11.07;100.00
37368;BME280;23240;43.210;27.910;2023-04-02T05:00:16;99919.03;;;11.09;100.00
37368;BME280;23240;43.210;27.910;2023-04-02T05:02:49;99916.88;;;11.22;100.00
37368;BME280;23240;43.210;27.910;2023-04-02T05:05:38;99916.50;;;11.35;100.00
37368;BME280;23240;43.210;27.910;2023-04-02T05:08:09;99923.47;;;11.46;100.00
37368;BME280;23240;43.210;27.910;2023-04-02T05:10:41;99926.66;;;11.41;100.00
37368;BME280;23240;43.210;27.910;2023-04-02T05:13:16;99931.69;;;11.44;100.00
37368;BME280;23240;43.210;27.910;2023-04-02T05:18:29;99947.28;;;11.76;100.00
37368;BME280;23240;43.210;27.910;2023-04-02T05:23:34;99953.00;;;12.09;100.00
37368;BME280;23240;43.210;27.910;2023-04-02T05:26:05;99959.34;;;12.08;100.00
37368;BME280;23240;43.210;27.910;2023-04-02T05:33:50;99965.81;;;12.59;100.00
37368;BME280;23240;43.210;27.910;2023-04-02T05:36:28;99957.63;;;12.86;100.00
37368;BME280;23240;43.210;27.910;2023-04-02T05:38:55;99967.31;;;12.79;100.00
37368;BME280;23240;43.210;27.910;2023-04-02T05:41:31;99970.81;;;12.80;100.00
37368;BME280;23240;43.210;27.910;2023-04-02T05:46:35;99950.59;;;12.94;100.00
37368;BME280;23240;43.210;27.910;2023-04-02T05:49:08;99947.47;;;13.06;100.00
37368;BME280;23240;43.210;27.910;2023-04-02T05:51:40;99952.59;;;12.92;100.00
37368;BME280;23240;43.210;27.910;2023-04-02T05:54:14;99948.50;;;12.79;100.00
37368;BME280;23240;43.210;27.910;2023-04-02T05:56:42;99946.81;;;12.78;100.00
37368;BME280;23240;43.210;27.910;2023-04-02T05:59:42;99953.28;;;12.94;100.00
37368;BME280;23240;43.210;27.910;2023-04-02T06:02:09;99958.38;;;13.05;100.00
37368;BME280;23240;43.210;27.910;2023-04-02T06:04:43;99968.69;;;12.83;100.00
37368;BME280;23240;43.210;27.910;2023-04-02T06:07:15;99957.38;;;12.80;100.00
37368;BME280;23240;43.210;27.910;2023-04-02T06:09:43;99968.03;;;12.90;100.00
37368;BME280;23240;43.210;27.910;2023-04-02T06:12:30;99986.25;;;13.04;100.00
37368;BME280;23240;43.210;27.910;2023-04-02T06:14:56;99973.63;;;13.22;100.00
37368;BME280;23240;43.210;27.910;2023-04-02T06:17:21;99971.91;;;13.55;100.00
37368;BME280;23240;43.210;27.910;2023-04-02T06:19:47;99974.84;;;13.86;100.00
37368;BME280;23240;43.210;27.910;2023-04-02T06:22:23;99962.41;;;14.26;100.00
37368;BME280;23240;43.210;27.910;2023-04-02T06:24:54;99967.06;;;15.14;100.00
37368;BME280;23240;43.210;27.910;2023-04-02T06:27:22;99975.22;;;15.45;100.00
37368;BME280;23240;43.210;27.910;2023-04-02T06:29:49;99976.53;;;15.49;100.00
37368;BME280;23240;43.210;27.910;2023-04-02T06:32:17;99975.56;;;15.81;97.63
37368;BME280;23240;43.210;27.910;2023-04-02T06:34:45;99976.47;;;16.19;92.07
37368;BME280;23240;43.210;27.910;2023-04-02T06:37:24;99982.25;;;16.16;93.09
37368;BME280;23240;43.210;27.910;2023-04-02T06:39:52;99981.97;;;16.34;90.56
37368;BME280;23240;43.210;27.910;2023-04-02T06:42:21;99983.16;;;16.09;87.49
37368;BME280;23240;43.210;27.910;2023-04-02T06:44:48;99981.97;;;16.34;88.67
37368;BME280;23240;43.210;27.910;2023-04-02T06:49:45;99976.66;;;16.18;89.37
37368;BME280;23240;43.210;27.910;2023-04-02T06:52:46;99978.56;;;16.09;88.21
37368;BME280;23240;43.210;27.910;2023-04-02T06:55:06;99994.63;;;15.32;96.04
37368;BME280;23240;43.210;27.910;2023-04-02T06:57:41;99982.22;;;15.23;100.00
37368;BME280;23240;43.210;27.910;2023-04-02T07:00:09;99982.22;;;15.23;98.06
37368;BME280;23240;43.210;27.910;2023-04-02T07:02:45;99986.09;;;15.12;100.00
37368;BME280;23240;43.210;27.910;2023-04-02T07:05:11;99988.16;;;15.10;100.00
37368;BME280;23240;43.210;27.910;2023-04-02T07:07:36;99987.38;;;14.85;100.00
37368;BME280;23240;43.210;27.910;2023-04-02T07:10:02;99987.00;;;14.97;100.00
37368;BME280;23240;43.210;27.910;2023-04-02T07:12:27;99995.28;;;14.95;100.00
37368;BME280;23240;43.210;27.910;2023-04-02T07:14:52;99988.03;;;14.87;100.00
37368;BME280;23240;43.210;27.910;2023-04-02T07:17:18;99996.66;;;14.67;100.00
37368;BME280;23240;43.210;27.910;2023-04-02T07:19:44;99996.13;;;14.63;100.00
37368;BME280;23240;43.210;27.910;2023-04-02T07:22:13;99995.63;;;14.68;100.00
37368;BME280;23240;43.210;27.910;2023-04-02T07:24:38;99999.84;;;14.62;100.00
37368;BME280;23240;43.210;27.910;2023-04-02T07:27:03;99999.84;;;14.70;100.00
37368;BME280;23240;43.210;27.910;2023-04-02T07:29:29;100005.88;;;14.39;100.00
37368;BME280;23240;43.210;27.910;2023-04-02T07:31:54;100016.38;;;14.75;100.00
37368;BME280;23240;43.210;27.910;2023-04-02T07:34:19;100020.91;;;14.58;100.00
37368;BME280;23240;43.210;27.910;2023-04-02T07:36:45;100017.66;;;14.30;100.00
37368;BME280;23240;43.210;27.910;2023-04-02T07:39:10;100019.69;;;14.28;100.00
37368;BME280;23240;43.210;27.910;2023-04-02T07:44:34;100026.44;;;14.32;100.00
37368;BME280;23240;43.210;27.910;2023-04-02T07:46:59;100025.56;;;14.24;100.00
37368;BME280;23240;43.210;27.910;2023-04-02T07:49:25;100026.38;;;14.00;100.00
37368;BME280;23240;43.210;27.910;2023-04-02T07:51:51;100035.09;;;13.94;100.00
37368;BME280;23240;43.210;27.910;2023-04-02T07:54:16;100035.78;;;13.96;100.00
37368;BME280;23240;43.210;27.910;2023-04-02T07:56:42;100058.91;;;13.64;100.00
37368;BME280;23240;43.210;27.910;2023-04-02T07:59:07;100049.22;;;13.45;100.00
37368;BME280;23240;43.210;27.910;2023-04-02T08:01:32;100053.16;;;13.25;100.00
37368;BME280;23240;43.210;27.910;2023-04-02T08:03:59;100057.72;;;13.32;100.00
37368;BME280;23240;43.210;27.910;2023-04-02T08:06:25;100040.25;;;13.36;100.00
37368;BME280;23240;43.210;27.910;2023-04-02T08:08:50;100061.84;;;13.53;100.00
37368;BME280;23240;43.210;27.910;2023-04-02T08:11:15;100065.88;;;13.49;100.00
37368;BME280;23240;43.210;27.910;2023-04-02T08:13:41;100052.06;;;13.44;100.00
37368;BME280;23240;43.210;27.910;2023-04-02T08:16:07;100059.97;;;13.45;100.00
37368;BME280;23240;43.210;27.910;2023-04-02T08:18:33;100063.88;;;13.51;100.00
37368;BME280;23240;43.210;27.910;2023-04-02T08:20:58;100076.00;;;13.55;100.00
37368;BME280;23240;43.210;27.910;2023-04-02T08:23:24;100073.16;;;13.56;100.00
37368;BME280;23240;43.210;27.910;2023-04-02T08:25:50;100082.28;;;13.37;100.00
37368;BME280;23240;43.210;27.910;2023-04-02T08:28:15;100078.22;;;13.33;100.00
37368;BME280;23240;43.210;27.910;2023-04-02T08:30:41;100087.38;;;13.49;100.00
37368;BME280;23240;43.210;27.910;2023-04-02T08:33:06;100083.38;;;13.53;100.00
37368;BME280;23240;43.210;27.910;2023-04-02T08:35:32;100079.81;;;13.78;100.00
37368;BME280;23240;43.210;27.910;2023-04-02T08:37:57;100069.28;;;13.93;100.00
37368;BME280;23240;43.210;27.910;2023-04-02T08:42:57;100075.50;;;14.60;100.00
37368;BME280;23240;43.210;27.910;2023-04-02T08:45:37;100074.16;;;14.73;100.00
37368;BME280;23240;43.210;27.910;2023-04-02T08:48:06;100077.16;;;14.70;100.00
37368;BME280;23240;43.210;27.910;2023-04-02T08:50:35;100073.66;;;14.61;100.00
37368;BME280;23240;43.210;27.910;2023-04-02T08:53:04;100079.69;;;14.63;100.00
37368;BME280;23240;43.210;27.910;2023-04-02T08:55:38;100089.13;;;14.67;100.00
37368;BME280;23240;43.210;27.910;2023-04-02T09:00:35;100092.81;;;14.99;100.00
37368;BME280;23240;43.210;27.910;2023-04-02T09:03:13;100095.38;;;15.00;100.00
37368;BME280;23240;43.210;27.910;2023-04-02T09:05:41;100095.72;;;14.97;100.00
37368;BME280;23240;43.210;27.910;2023-04-02T09:08:17;100088.63;;;14.96;100.00
37368;BME280;23240;43.210;27.910;2023-04-02T09:10:47;100093.00;;;15.05;100.00
37368;BME280;23240;43.210;27.910;2023-04-02T09:13:15;100095.69;;;14.89;100.00
37368;BME280;23240;43.210;27.910;2023-04-02T09:15:42;100098.25;;;14.90;100.00
37368;BME280;23240;43.210;27.910;2023-04-02T09:18:12;100095.22;;;14.85;100.00
37368;BME280;23240;43.210;27.910;2023-04-02T09:20:38;100103.28;;;14.94;100.00
37368;BME280;23240;43.210;27.910;2023-04-02T09:23:03;100114.25;;;14.92;100.00
37368;BME280;23240;43.210;27.910;2023-04-02T09:25:30;100094.19;;;15.11;100.00
37368;BME280;23240;43.210;27.910;2023-04-02T09:27:56;100118.63;;;15.09;100.00
37368;BME280;23240;43.210;27.910;2023-04-02T09:32:52;100098.31;;;15.54;100.00
37368;BME280;23240;43.210;27.910;2023-04-02T09:35:19;100098.41;;;15.85;96.65
37368;BME280;23240;43.210;27.910;2023-04-02T09:37:45;100096.78;;;15.76;97.92
37368;BME280;23240;43.210;27.910;2023-04-02T09:42:40;100101.97;;;15.86;96.99
37368;BME280;23240;43.210;27.910;2023-04-02T09:45:23;100091.91;;;16.03;90.76
37368;BME280;23240;43.210;27.910;2023-04-02T09:47:50;100094.97;;;16.00;90.70
37368;BME280;23240;43.210;27.910;2023-04-02T09:50:31;100095.16;;;15.98;90.72
37368;BME280;23240;43.210;27.910;2023-04-02T09:52:57;100093.25;;;16.07;91.94
37368;BME280;23240;43.210;27.910;2023-04-02T09:55:24;100096.66;;;16.01;89.96
37368;BME280;23240;43.210;27.910;2023-04-02T09:58:06;100090.69;;;15.74;92.77
37368;BME280;23240;43.210;27.910;2023-04-02T10:00:31;100093.25;;;16.07;93.59
37368;BME280;23240;43.210;27.910;2023-04-02T10:05:26;100100.78;;;16.51;88.91
37368;BME280;23240;43.210;27.910;2023-04-02T10:07:52;100086.81;;;16.62;85.85
37368;BME280;23240;43.210;27.910;2023-04-02T10:13:06;100093.44;;;16.82;82.08
37368;BME280;23240;43.210;27.910;2023-04-02T10:15:34;100098.94;;;16.43;84.39
37368;BME280;23240;43.210;27.910;2023-04-02T10:18:06;100106.81;;;16.53;85.74
37368;BME280;23240;43.210;27.910;2023-04-02T10:20:37;100102.25;;;16.84;83.66
37368;BME280;23240;43.210;27.910;2023-04-02T10:23:03;100100.41;;;17.00;80.63
37368;BME280;23240;43.210;27.910;2023-04-02T10:25:30;100111.97;;;16.93;81.70
37368;BME280;23240;43.210;27.910;2023-04-02T10:27:59;100113.41;;;16.81;81.62
37368;BME280;23240;43.210;27.910;2023-04-02T10:33:24;100118.97;;;16.57;83.70
37368;BME280;23240;43.210;27.910;2023-04-02T10:56:45;100147.53;;;16.82;88.95
37368;BME280;23240;43.210;27.910;2023-04-02T10:59:22;100155.09;;;16.64;87.82
37368;BME280;23240;43.210;27.910;2023-04-02T11:01:48;100150.25;;;16.51;88.91
37368;BME280;23240;43.210;27.910;2023-04-02T11:04:16;100141.53;;;16.72;88.08
37368;BME280;23240;43.210;27.910;2023-04-02T11:07:04;100143.13;;;16.89;85.33
37368;BME280;23240;43.210;27.910;2023-04-02T11:09:32;100141.88;;;16.69;84.73
37368;BME280;23240;43.210;27.910;2023-04-02T11:11:59;100142.06;;;16.36;86.71
37368;BME280;23240;43.210;27.910;2023-04-02T11:14:27;100142.06;;;16.36;88.52
37368;BME280;23240;43.210;27.910;2023-04-02T11:16:53;100143.75;;;16.06;89.08
37368;BME280;23240;43.210;27.910;2023-04-02T11:21:44;100150.63;;;16.09;90.42
37368;BME280;23240;43.210;27.910;2023-04-02T11:32:39;100147.84;;;16.87;78.88
37368;BME280;23240;43.210;27.910;2023-04-02T11:37:50;100144.84;;;16.51;78.42
37368;BME280;23240;43.210;27.910;2023-04-02T11:42:45;100152.78;;;16.53;77.93
37368;BME280;23240;43.210;27.910;2023-04-02T11:50:34;100164.03;;;16.95;74.86
37368;BME280;23240;43.210;27.910;2023-04-02T11:53:04;100150.53;;;17.10;71.29
37368;BME280;23240;43.210;27.910;2023-04-02T11:55:33;100156.69;;;17.27;68.37
37368;BME280;23240;43.210;27.910;2023-04-02T12:05:38;100147.03;;;18.07;62.47
37368;BME280;23240;43.210;27.910;2023-04-02T12:11:02;100150.03;;;18.12;61.74
37368;BME280;23240;43.210;27.910;2023-04-02T12:16:05;100151.88;;;18.26;61.58
37368;BME280;23240;43.210;27.910;2023-04-02T12:18:31;100163.78;;;18.10;62.26
37368;BME280;23240;43.210;27.910;2023-04-02T12:20:57;100152.69;;;17.90;62.47
37368;BME280;23240;43.210;27.910;2023-04-02T12:25:57;100152.16;;;17.72;64.29
37368;BME280;23240;43.210;27.910;2023-04-02T12:28:23;100159.44;;;17.57;65.00
37368;BME280;23240;43.210;27.910;2023-04-02T12:30:49;100162.44;;;17.62;64.76
37368;BME280;23240;43.210;27.910;2023-04-02T12:35:44;100157.88;;;17.25;66.49
37368;BME280;23240;43.210;27.910;2023-04-02T12:41:03;100166.13;;;17.08;71.64
37368;BME280;23240;43.210;27.910;2023-04-02T12:43:30;100165.09;;;17.09;75.49
37368;BME280;23240;43.210;27.910;2023-04-02T12:46:05;100179.28;;;17.11;77.85
37368;BME280;23240;43.210;27.910;2023-04-02T12:48:32;100172.34;;;16.94;82.93
37368;BME280;23240;43.210;27.910;2023-04-02T12:50:57;100169.81;;;16.92;83.59
37368;BME280;23240;43.210;27.910;2023-04-02T12:53:34;100173.16;;;16.94;82.89
37368;BME280;23240;43.210;27.910;2023-04-02T12:56:00;100176.75;;;16.87;84.63
37368;BME280;23240;43.210;27.910;2023-04-02T12:58:34;100179.41;;;16.95;83.16
37368;BME280;23240;43.210;27.910;2023-04-02T13:01:15;100171.31;;;16.95;82.75
37368;BME280;23240;43.210;27.910;2023-04-02T13:03:59;100176.34;;;17.21;82.47
37368;BME280;23240;43.210;27.910;2023-04-02T13:06:25;100177.34;;;17.20;81.98
37368;BME280;23240;43.210;27.910;2023-04-02T13:08:51;100187.84;;;17.23;82.92
37368;BME280;23240;43.210;27.910;2023-04-02T13:11:17;100176.66;;;17.26;83.27
37368;BME280;23240;43.210;27.910;2023-04-02T13:13:43;100184.69;;;17.34;79.39
37368;BME280;23240;43.210;27.910;2023-04-02T13:18:41;100162.91;;;17.51;76.78
37368;BME280;23240;43.210;27.910;2023-04-02T13:23:42;100164.53;;;17.89;73.08
37368;BME280;23240;43.210;27.910;2023-04-02T13:28:36;100166.34;;;17.59;73.30
37368;BME280;23240;43.210;27.910;2023-04-02T13:31:01;100161.09;;;17.43;74.22
37368;BME280;23240;43.210;27.910;2023-04-02T13:33:27;100156.44;;;17.52;73.05
37368;BME280;23240;43.210;27.910;2023-04-02T13:35:52;100153.88;;;17.35;73.38
37368;BME280;23240;43.210;27.910;2023-04-02T13:38:18;100161.59;;;17.24;73.75
37368;BME280;23240;43.210;27.910;2023-04-02T13:40:43;100167.56;;;17.19;74.62
37368;BME280;23240;43.210;27.910;2023-04-02T13:43:14;100157.19;;;16.85;76.96
37368;BME280;23240;43.210;27.910;2023-04-02T13:45:40;100163.53;;;16.69;78.94
37368;BME280;23240;43.210;27.910;2023-04-02T13:48:08;100163.91;;;16.58;80.89
37368;BME280;23240;43.210;27.910;2023-04-02T13:50:36;100164.88;;;16.65;81.74
37368;BME280;23240;43.210;27.910;2023-04-02T13:53:05;100162.50;;;16.70;80.04
37368;BME280;23240;43.210;27.910;2023-04-02T13:55:34;100159.34;;;16.89;78.87
37368;BME280;23240;43.210;27.910;2023-04-02T13:57:59;100160.59;;;17.02;79.27
37368;BME280;23240;43.210;27.910;2023-04-02T14:00:25;100162.50;;;17.16;78.08
37368;BME280;23240;43.210;27.910;2023-04-02T14:02:53;100161.00;;;17.36;76.94
37368;BME280;23240;43.210;27.910;2023-04-02T14:05:37;100162.44;;;17.62;75.88
37368;BME280;23240;43.210;27.910;2023-04-02T14:21:10;100151.78;;;17.45;70.76
37368;BME280;23240;43.210;27.910;2023-04-02T14:31:46;100173.50;;;17.37;75.84
37368;BME280;23240;43.210;27.910;2023-04-02T14:39:31;100168.94;;;17.15;77.58
37368;BME280;23240;43.210;27.910;2023-04-02T14:42:15;100161.13;;;17.20;77.22
37368;BME280;23240;43.210;27.910;2023-04-02T14:44:49;100160.34;;;17.11;77.16
37368;BME280;23240;43.210;27.910;2023-04-02T14:47:23;100167.16;;;17.07;76.08
37368;BME280;23240;43.210;27.910;2023-04-02T14:49:51;100160.19;;;17.13;74.22
37368;BME280;23240;43.210;27.910;2023-04-02T14:52:19;100164.56;;;17.14;74.98
37368;BME280;23240;43.210;27.910;2023-04-02T14:57:26;100172.03;;;17.12;75.98
37368;BME280;23240;43.210;27.910;2023-04-02T15:00:06;100171.06;;;17.05;74.92
37368;BME280;23240;43.210;27.910;2023-04-02T15:07:54;100161.81;;;16.99;76.45
37368;BME280;23240;43.210;27.910;2023-04-02T15:12:47;100160.19;;;16.90;76.40
37368;BME280;23240;43.210;27.910;2023-04-02T15:15:18;100156.53;;;16.83;75.33
37368;BME280;23240;43.210;27.910;2023-04-02T15:17:44;100163.78;;;16.82;76.31
37368;BME280;23240;43.210;27.910;2023-04-02T15:20:13;100158.75;;;16.79;74.48
37368;BME280;23240;43.210;27.910;2023-04-02T15:22:45;100177.69;;;16.71;74.02
37368;BME280;23240;43.210;27.910;2023-04-02T15:30:38;100187.34;;;16.96;73.03
37368;BME280;23240;43.210;27.910;2023-04-02T15:36:09;100203.00;;;17.09;74.25
37368;BME280;23240;43.210;27.910;2023-04-02T15:38:40;100197.94;;;17.06;76.05
37368;BME280;23240;43.210;27.910;2023-04-02T15:41:09;100212.38;;;16.99;76.50
37368;BME280;23240;43.210;27.910;2023-04-02T15:43:38;100223.44;;;16.89;77.16
37368;BME280;23240;43.210;27.910;2023-04-02T15:46:20;100218.59;;;16.76;79.91
37368;BME280;23240;43.210;27.910;2023-04-02T15:56:56;100214.66;;;16.48;82.20
37368;BME280;23240;43.210;27.910;2023-04-02T16:05:00;100222.72;;;16.16;86.89
37368;BME280;23240;43.210;27.910;2023-04-02T16:12:18;100229.03;;;16.01;88.68
37368;BME280;23240;43.210;27.910;2023-04-02T16:14:45;100237.66;;;15.96;88.42
37368;BME280;23240;43.210;27.910;2023-04-02T16:17:13;100228.34;;;15.90;88.92
37368;BME280;23240;43.210;27.910;2023-04-02T16:19:43;100231.09;;;15.82;89.86
37368;BME280;23240;43.210;27.910;2023-04-02T16:22:26;100234.63;;;15.75;90.27
37368;BME280;23240;43.210;27.910;2023-04-02T16:25:06;100238.19;;;15.75;90.55
37368;BME280;23240;43.210;27.910;2023-04-02T16:27:39;100230.78;;;15.77;90.49
37368;BME280;23240;43.210;27.910;2023-04-02T16:40:18;100250.00;;;15.58;94.38
37368;BME280;23240;43.210;27.910;2023-04-02T16:42:48;100255.38;;;15.41;100.00
37368;BME280;23240;43.210;27.910;2023-04-02T16:45:29;100266.84;;;15.19;100.00
37368;BME280;23240;43.210;27.910;2023-04-02T16:48:05;100264.03;;;14.78;100.00
37368;BME280;23240;43.210;27.910;2023-04-02T16:55:59;100277.38;;;13.85;100.00
37368;BME280;23240;43.210;27.910;2023-04-02T17:06:46;100287.84;;;13.17;100.00
37368;BME280;23240;43.210;27.910;2023-04-02T17:08:56;100292.75;;;13.04;100.00
37368;BME280;23240;43.210;27.910;2023-04-02T17:11:30;100289.97;;;12.96;100.00
37368;BME280;23240;43.210;27.910;2023-04-02T17:18:55;100308.81;;;12.68;100.00
37368;BME280;23240;43.210;27.910;2023-04-02T17:21:26;100311.34;;;12.70;100.00
37368;BME280;23240;43.210;27.910;2023-04-02T17:24:34;100318.19;;;12.64;100.00